sensor_id;sensor_type;location;lat;lon;timestamp;P1;durP1;ratioP1;P2;durP2;ratioP2
6288;SDS011;3177;49.880;8.836;2022-12-18T00:01:56;32.53;;;16.17;;
6288;SDS011;3177;49.880;8.836;2022-12-18T00:04:25;33.97;;;16.07;;
6288;SDS011;3177;49.880;8.836;2022-12-18T00:06:53;28.33;;;17.57;;
6288;SDS011;3177;49.880;8.836;2022-12-18T00:09:20;29.13;;;15.50;;
6288;SDS011;3177;49.880;8.836;2022-12-18T00:11:47;26.97;;;16.00;;
6288;SDS011;3177;49.880;8.836;2022-12-18T00:14:15;24.07;;;14.43;;
6288;SDS011;3177;49.880;8.836;2022-12-18T00:16:42;35.10;;;16.50;;
6288;SDS011;3177;49.880;8.836;2022-12-18T00:19:10;26.67;;;14.07;;
6288;SDS011;3177;49.880;8.836;2022-12-18T00:21:37;22.67;;;14.70;;
6288;SDS011;3177;49.880;8.836;2022-12-18T00:24:06;29.07;;;15.10;;
6288;SDS011;3177;49.880;8.836;2022-12-18T00:26:34;25.53;;;15.23;;
6288;SDS011;3177;49.880;8.836;2022-12-18T00:29:02;31.33;;;15.47;;
6288;SDS011;3177;49.880;8.836;2022-12-18T00:31:29;23.93;;;16.47;;
6288;SDS011;3177;49.880;8.836;2022-12-18T00:33:57;27.33;;;16.40;;
6288;SDS011;3177;49.880;8.836;2022-12-18T00:36:24;26.67;;;15.77;;
6288;SDS011;3177;49.880;8.836;2022-12-18T00:38:52;31.43;;;15.27;;
6288;SDS011;3177;49.880;8.836;2022-12-18T00:41:21;25.03;;;15.37;;
6288;SDS011;3177;49.880;8.836;2022-12-18T00:44:07;26.73;;;14.37;;
6288;SDS011;3177;49.880;8.836;2022-12-18T00:46:34;25.77;;;14.93;;
6288;SDS011;3177;49.880;8.836;2022-12-18T00:49:01;30.87;;;16.40;;
6288;SDS011;3177;49.880;8.836;2022-12-18T00:51:29;28.90;;;15.70;;
6288;SDS011;3177;49.880;8.836;2022-12-18T00:53:56;29.87;;;14.67;;
6288;SDS011;3177;49.880;8.836;2022-12-18T00:56:24;32.50;;;15.27;;
6288;SDS011;3177;49.880;8.836;2022-12-18T00:58:51;24.77;;;15.00;;
6288;SDS011;3177;49.880;8.836;2022-12-18T01:01:18;23.93;;;14.07;;
6288;SDS011;3177;49.880;8.836;2022-12-18T01:03:45;29.97;;;16.27;;
6288;SDS011;3177;49.880;8.836;2022-12-18T01:06:12;29.67;;;15.67;;
6288;SDS011;3177;49.880;8.836;2022-12-18T01:08:40;29.17;;;16.77;;
6288;SDS011;3177;49.880;8.836;2022-12-18T01:11:08;28.37;;;15.30;;
6288;SDS011;3177;49.880;8.836;2022-12-18T01:13:37;25.67;;;15.47;;
6288;SDS011;3177;49.880;8.836;2022-12-18T01:16:04;25.03;;;14.20;;
6288;SDS011;3177;49.880;8.836;2022-12-18T01:18:31;24.80;;;14.03;;
6288;SDS011;3177;49.880;8.836;2022-12-18T01:20:58;26.97;;;14.67;;
6288;SDS011;3177;49.880;8.836;2022-12-18T01:23:25;21.43;;;12.57;;
6288;SDS011;3177;49.880;8.836;2022-12-18T01:25:52;24.07;;;14.00;;
6288;SDS011;3177;49.880;8.836;2022-12-18T01:28:20;25.03;;;15.07;;
6288;SDS011;3177;49.880;8.836;2022-12-18T01:30:48;26.87;;;14.47;;
6288;SDS011;3177;49.880;8.836;2022-12-18T01:33:15;24.67;;;13.83;;
6288;SDS011;3177;49.880;8.836;2022-12-18T01:35:42;25.10;;;12.97;;
6288;SDS011;3177;49.880;8.836;2022-12-18T01:38:09;20.00;;;13.17;;
6288;SDS011;3177;49.880;8.836;2022-12-18T01:40:36;28.00;;;14.60;;
6288;SDS011;3177;49.880;8.836;2022-12-18T01:43:03;24.43;;;13.37;;
6288;SDS011;3177;49.880;8.836;2022-12-18T01:45:31;26.67;;;13.37;;
6288;SDS011;3177;49.880;8.836;2022-12-18T01:48:00;25.40;;;14.57;;
6288;SDS011;3177;49.880;8.836;2022-12-18T01:50:29;24.70;;;13.77;;
6288;SDS011;3177;49.880;8.836;2022-12-18T01:52:58;23.07;;;13.53;;
6288;SDS011;3177;49.880;8.836;2022-12-18T01:55:26;25.20;;;15.40;;
6288;SDS011;3177;49.880;8.836;2022-12-18T01:57:55;21.83;;;12.60;;
6288;SDS011;3177;49.880;8.836;2022-12-18T02:00:23;26.70;;;14.83;;
6288;SDS011;3177;49.880;8.836;2022-12-18T02:02:51;18.67;;;14.07;;
6288;SDS011;3177;49.880;8.836;2022-12-18T02:05:21;20.57;;;13.47;;
6288;SDS011;3177;49.880;8.836;2022-12-18T02:07:53;18.37;;;12.37;;
6288;SDS011;3177;49.880;8.836;2022-12-18T02:10:24;18.43;;;11.63;;
6288;SDS011;3177;49.880;8.836;2022-12-18T02:12:53;19.03;;;12.47;;
6288;SDS011;3177;49.880;8.836;2022-12-18T02:15:24;23.90;;;12.87;;
6288;SDS011;3177;49.880;8.836;2022-12-18T02:17:54;25.47;;;14.33;;
6288;SDS011;3177;49.880;8.836;2022-12-18T02:20:25;20.70;;;12.67;;
6288;SDS011;3177;49.880;8.836;2022-12-18T02:23:04;18.30;;;12.63;;
6288;SDS011;3177;49.880;8.836;2022-12-18T02:25:38;23.43;;;13.37;;
6288;SDS011;3177;49.880;8.836;2022-12-18T02:28:09;16.70;;;11.33;;
6288;SDS011;3177;49.880;8.836;2022-12-18T02:30:38;26.10;;;14.60;;
6288;SDS011;3177;49.880;8.836;2022-12-18T02:33:06;19.30;;;12.87;;
6288;SDS011;3177;49.880;8.836;2022-12-18T02:35:34;24.17;;;13.80;;
6288;SDS011;3177;49.880;8.836;2022-12-18T02:38:01;18.13;;;12.80;;
6288;SDS011;3177;49.880;8.836;2022-12-18T02:40:30;19.50;;;13.43;;
6288;SDS011;3177;49.880;8.836;2022-12-18T02:43:01;18.70;;;11.80;;
6288;SDS011;3177;49.880;8.836;2022-12-18T02:45:30;16.27;;;11.33;;
6288;SDS011;3177;49.880;8.836;2022-12-18T02:47:57;26.27;;;13.43;;
6288;SDS011;3177;49.880;8.836;2022-12-18T02:50:26;24.27;;;13.47;;
6288;SDS011;3177;49.880;8.836;2022-12-18T02:52:59;25.57;;;14.23;;
6288;SDS011;3177;49.880;8.836;2022-12-18T02:55:31;19.50;;;11.90;;
6288;SDS011;3177;49.880;8.836;2022-12-18T02:58:02;19.57;;;11.93;;
6288;SDS011;3177;49.880;8.836;2022-12-18T03:00:33;18.13;;;12.30;;
6288;SDS011;3177;49.880;8.836;2022-12-18T03:03:04;25.07;;;12.87;;
6288;SDS011;3177;49.880;8.836;2022-12-18T03:05:33;19.87;;;12.53;;
6288;SDS011;3177;49.880;8.836;2022-12-18T03:08:02;21.47;;;13.90;;
6288;SDS011;3177;49.880;8.836;2022-12-18T03:10:32;18.60;;;13.23;;
6288;SDS011;3177;49.880;8.836;2022-12-18T03:13:02;20.57;;;11.33;;
6288;SDS011;3177;49.880;8.836;2022-12-18T03:15:31;26.73;;;13.53;;
6288;SDS011;3177;49.880;8.836;2022-12-18T03:18:02;17.37;;;13.70;;
6288;SDS011;3177;49.880;8.836;2022-12-18T03:20:31;19.90;;;13.03;;
6288;SDS011;3177;49.880;8.836;2022-12-18T03:22:59;18.57;;;14.10;;
6288;SDS011;3177;49.880;8.836;2022-12-18T03:25:29;21.93;;;13.50;;
6288;SDS011;3177;49.880;8.836;2022-12-18T03:27:58;20.67;;;13.63;;
6288;SDS011;3177;49.880;8.836;2022-12-18T03:30:26;21.77;;;12.43;;
6288;SDS011;3177;49.880;8.836;2022-12-18T03:32:58;22.07;;;13.37;;
6288;SDS011;3177;49.880;8.836;2022-12-18T03:35:29;27.50;;;12.73;;
6288;SDS011;3177;49.880;8.836;2022-12-18T03:37:58;21.20;;;12.27;;
6288;SDS011;3177;49.880;8.836;2022-12-18T03:40:26;21.93;;;13.40;;
6288;SDS011;3177;49.880;8.836;2022-12-18T03:42:57;17.83;;;10.87;;
6288;SDS011;3177;49.880;8.836;2022-12-18T03:45:27;25.40;;;13.03;;
6288;SDS011;3177;49.880;8.836;2022-12-18T03:47:59;18.10;;;12.57;;
6288;SDS011;3177;49.880;8.836;2022-12-18T03:50:30;27.63;;;12.97;;
6288;SDS011;3177;49.880;8.836;2022-12-18T03:53:03;21.67;;;12.30;;
6288;SDS011;3177;49.880;8.836;2022-12-18T03:55:33;16.60;;;13.07;;
6288;SDS011;3177;49.880;8.836;2022-12-18T03:58:01;19.27;;;11.93;;
6288;SDS011;3177;49.880;8.836;2022-12-18T04:00:30;24.47;;;13.47;;
6288;SDS011;3177;49.880;8.836;2022-12-18T04:02:59;24.23;;;12.53;;
6288;SDS011;3177;49.880;8.836;2022-12-18T04:05:27;20.80;;;13.53;;
6288;SDS011;3177;49.880;8.836;2022-12-18T04:07:55;22.47;;;13.50;;
6288;SDS011;3177;49.880;8.836;2022-12-18T04:10:23;19.30;;;12.53;;
6288;SDS011;3177;49.880;8.836;2022-12-18T04:12:50;22.70;;;13.77;;
6288;SDS011;3177;49.880;8.836;2022-12-18T04:15:17;27.10;;;11.90;;
6288;SDS011;3177;49.880;8.836;2022-12-18T04:17:46;19.73;;;12.80;;
6288;SDS011;3177;49.880;8.836;2022-12-18T04:20:15;17.70;;;12.37;;
6288;SDS011;3177;49.880;8.836;2022-12-18T04:22:43;21.03;;;13.10;;
6288;SDS011;3177;49.880;8.836;2022-12-18T04:25:10;17.80;;;11.57;;
6288;SDS011;3177;49.880;8.836;2022-12-18T04:27:37;23.27;;;13.13;;
6288;SDS011;3177;49.880;8.836;2022-12-18T04:30:04;20.23;;;12.03;;
6288;SDS011;3177;49.880;8.836;2022-12-18T04:32:32;21.67;;;12.23;;
6288;SDS011;3177;49.880;8.836;2022-12-18T04:34:59;16.47;;;12.07;;
6288;SDS011;3177;49.880;8.836;2022-12-18T04:37:30;25.80;;;14.23;;
6288;SDS011;3177;49.880;8.836;2022-12-18T04:39:57;23.83;;;12.33;;
6288;SDS011;3177;49.880;8.836;2022-12-18T04:42:24;18.47;;;12.53;;
6288;SDS011;3177;49.880;8.836;2022-12-18T04:44:51;24.33;;;12.93;;
6288;SDS011;3177;49.880;8.836;2022-12-18T04:47:18;20.57;;;11.63;;
6288;SDS011;3177;49.880;8.836;2022-12-18T04:49:45;15.70;;;11.83;;
6288;SDS011;3177;49.880;8.836;2022-12-18T04:52:13;24.87;;;13.03;;
6288;SDS011;3177;49.880;8.836;2022-12-18T04:54:41;23.63;;;14.17;;
6288;SDS011;3177;49.880;8.836;2022-12-18T04:57:08;21.47;;;12.20;;
6288;SDS011;3177;49.880;8.836;2022-12-18T04:59:35;17.40;;;12.33;;
6288;SDS011;3177;49.880;8.836;2022-12-18T05:02:02;20.60;;;12.47;;
6288;SDS011;3177;49.880;8.836;2022-12-18T05:04:29;19.67;;;12.97;;
6288;SDS011;3177;49.880;8.836;2022-12-18T05:06:57;22.47;;;13.03;;
6288;SDS011;3177;49.880;8.836;2022-12-18T05:09:24;21.23;;;12.63;;
6288;SDS011;3177;49.880;8.836;2022-12-18T05:11:52;20.10;;;12.27;;
6288;SDS011;3177;49.880;8.836;2022-12-18T05:14:19;20.83;;;11.40;;
6288;SDS011;3177;49.880;8.836;2022-12-18T05:16:46;23.33;;;12.57;;
6288;SDS011;3177;49.880;8.836;2022-12-18T05:19:13;22.97;;;13.23;;
6288;SDS011;3177;49.880;8.836;2022-12-18T05:21:40;21.17;;;14.27;;
6288;SDS011;3177;49.880;8.836;2022-12-18T05:24:07;18.87;;;12.67;;
6288;SDS011;3177;49.880;8.836;2022-12-18T05:26:34;17.37;;;12.53;;
6288;SDS011;3177;49.880;8.836;2022-12-18T05:29:03;22.63;;;13.03;;
6288;SDS011;3177;49.880;8.836;2022-12-18T05:31:30;19.87;;;13.50;;
6288;SDS011;3177;49.880;8.836;2022-12-18T05:33:57;16.53;;;11.10;;
6288;SDS011;3177;49.880;8.836;2022-12-18T05:36:24;13.93;;;11.17;;
6288;SDS011;3177;49.880;8.836;2022-12-18T05:38:51;20.47;;;12.23;;
6288;SDS011;3177;49.880;8.836;2022-12-18T05:41:18;19.93;;;12.53;;
6288;SDS011;3177;49.880;8.836;2022-12-18T05:43:45;23.63;;;12.57;;
6288;SDS011;3177;49.880;8.836;2022-12-18T05:46:14;16.80;;;11.30;;
6288;SDS011;3177;49.880;8.836;2022-12-18T05:48:42;20.03;;;12.60;;
6288;SDS011;3177;49.880;8.836;2022-12-18T05:51:11;24.43;;;12.63;;
6288;SDS011;3177;49.880;8.836;2022-12-18T05:53:39;19.33;;;11.23;;
6288;SDS011;3177;49.880;8.836;2022-12-18T05:56:07;18.10;;;13.03;;
6288;SDS011;3177;49.880;8.836;2022-12-18T05:58:34;18.27;;;11.53;;
6288;SDS011;3177;49.880;8.836;2022-12-18T06:01:06;19.80;;;11.90;;
6288;SDS011;3177;49.880;8.836;2022-12-18T06:03:34;27.33;;;12.20;;
6288;SDS011;3177;49.880;8.836;2022-12-18T06:06:01;17.77;;;11.10;;
6288;SDS011;3177;49.880;8.836;2022-12-18T06:08:28;18.70;;;12.57;;
6288;SDS011;3177;49.880;8.836;2022-12-18T06:10:55;15.80;;;11.07;;
6288;SDS011;3177;49.880;8.836;2022-12-18T06:13:23;20.03;;;11.33;;
6288;SDS011;3177;49.880;8.836;2022-12-18T06:15:50;21.23;;;13.90;;
6288;SDS011;3177;49.880;8.836;2022-12-18T06:18:17;16.27;;;9.97;;
6288;SDS011;3177;49.880;8.836;2022-12-18T06:20:45;17.83;;;12.03;;
6288;SDS011;3177;49.880;8.836;2022-12-18T06:23:20;27.10;;;14.20;;
6288;SDS011;3177;49.880;8.836;2022-12-18T06:25:47;17.93;;;12.00;;
6288;SDS011;3177;49.880;8.836;2022-12-18T06:28:14;26.07;;;12.77;;
6288;SDS011;3177;49.880;8.836;2022-12-18T06:30:43;26.60;;;13.53;;
6288;SDS011;3177;49.880;8.836;2022-12-18T06:33:10;24.07;;;14.33;;
6288;SDS011;3177;49.880;8.836;2022-12-18T06:35:37;24.13;;;15.40;;
6288;SDS011;3177;49.880;8.836;2022-12-18T06:38:05;27.17;;;15.43;;
6288;SDS011;3177;49.880;8.836;2022-12-18T06:40:32;23.63;;;14.57;;
6288;SDS011;3177;49.880;8.836;2022-12-18T06:43:00;27.60;;;15.73;;
6288;SDS011;3177;49.880;8.836;2022-12-18T06:45:27;20.13;;;13.30;;
6288;SDS011;3177;49.880;8.836;2022-12-18T06:47:54;26.07;;;16.50;;
6288;SDS011;3177;49.880;8.836;2022-12-18T06:50:21;28.13;;;16.17;;
6288;SDS011;3177;49.880;8.836;2022-12-18T06:52:48;27.13;;;15.47;;
6288;SDS011;3177;49.880;8.836;2022-12-18T06:55:16;26.93;;;15.03;;
6288;SDS011;3177;49.880;8.836;2022-12-18T06:57:44;24.70;;;14.67;;
6288;SDS011;3177;49.880;8.836;2022-12-18T07:00:11;23.50;;;14.80;;
6288;SDS011;3177;49.880;8.836;2022-12-18T07:02:38;21.20;;;14.67;;
6288;SDS011;3177;49.880;8.836;2022-12-18T07:05:06;24.40;;;13.17;;
6288;SDS011;3177;49.880;8.836;2022-12-18T07:07:33;17.93;;;12.00;;
6288;SDS011;3177;49.880;8.836;2022-12-18T07:10:00;24.53;;;13.57;;
6288;SDS011;3177;49.880;8.836;2022-12-18T07:12:29;22.97;;;14.90;;
6288;SDS011;3177;49.880;8.836;2022-12-18T07:14:56;30.03;;;16.20;;
6288;SDS011;3177;49.880;8.836;2022-12-18T07:17:23;23.77;;;14.70;;
6288;SDS011;3177;49.880;8.836;2022-12-18T07:19:50;28.60;;;15.67;;
6288;SDS011;3177;49.880;8.836;2022-12-18T07:22:17;28.43;;;14.37;;
6288;SDS011;3177;49.880;8.836;2022-12-18T07:24:44;30.03;;;16.83;;
6288;SDS011;3177;49.880;8.836;2022-12-18T07:27:11;26.00;;;15.97;;
6288;SDS011;3177;49.880;8.836;2022-12-18T07:29:39;27.57;;;15.47;;
6288;SDS011;3177;49.880;8.836;2022-12-18T07:32:06;33.07;;;17.97;;
6288;SDS011;3177;49.880;8.836;2022-12-18T07:34:34;31.77;;;17.13;;
6288;SDS011;3177;49.880;8.836;2022-12-18T07:37:01;29.30;;;15.73;;
6288;SDS011;3177;49.880;8.836;2022-12-18T07:39:28;31.10;;;18.30;;
6288;SDS011;3177;49.880;8.836;2022-12-18T07:41:55;37.80;;;17.37;;
6288;SDS011;3177;49.880;8.836;2022-12-18T07:44:46;26.53;;;17.50;;
6288;SDS011;3177;49.880;8.836;2022-12-18T07:47:13;31.33;;;17.73;;
6288;SDS011;3177;49.880;8.836;2022-12-18T07:49:40;30.93;;;16.70;;
6288;SDS011;3177;49.880;8.836;2022-12-18T07:52:07;28.53;;;18.00;;
6288;SDS011;3177;49.880;8.836;2022-12-18T07:54:34;33.53;;;18.43;;
6288;SDS011;3177;49.880;8.836;2022-12-18T07:57:01;26.90;;;16.37;;
6288;SDS011;3177;49.880;8.836;2022-12-18T07:59:28;32.40;;;16.60;;
6288;SDS011;3177;49.880;8.836;2022-12-18T08:01:57;39.57;;;19.67;;
6288;SDS011;3177;49.880;8.836;2022-12-18T08:04:24;31.00;;;17.17;;
6288;SDS011;3177;49.880;8.836;2022-12-18T08:06:51;33.63;;;17.70;;
6288;SDS011;3177;49.880;8.836;2022-12-18T08:09:18;40.77;;;21.50;;
6288;SDS011;3177;49.880;8.836;2022-12-18T08:11:45;29.77;;;18.23;;
6288;SDS011;3177;49.880;8.836;2022-12-18T08:14:12;33.47;;;19.13;;
6288;SDS011;3177;49.880;8.836;2022-12-18T08:16:39;36.43;;;20.03;;
6288;SDS011;3177;49.880;8.836;2022-12-18T08:19:08;42.17;;;22.70;;
6288;SDS011;3177;49.880;8.836;2022-12-18T08:21:35;35.70;;;18.80;;
6288;SDS011;3177;49.880;8.836;2022-12-18T08:24:02;52.03;;;23.73;;
6288;SDS011;3177;49.880;8.836;2022-12-18T08:26:30;49.67;;;24.93;;
6288;SDS011;3177;49.880;8.836;2022-12-18T08:28:58;49.17;;;23.53;;
6288;SDS011;3177;49.880;8.836;2022-12-18T08:31:26;48.83;;;23.73;;
6288;SDS011;3177;49.880;8.836;2022-12-18T08:33:53;53.07;;;24.57;;
6288;SDS011;3177;49.880;8.836;2022-12-18T08:36:23;63.50;;;27.07;;
6288;SDS011;3177;49.880;8.836;2022-12-18T08:38:50;58.33;;;25.10;;
6288;SDS011;3177;49.880;8.836;2022-12-18T08:41:17;62.30;;;23.93;;
6288;SDS011;3177;49.880;8.836;2022-12-18T08:43:45;58.87;;;26.43;;
6288;SDS011;3177;49.880;8.836;2022-12-18T08:46:32;65.00;;;26.57;;
6288;SDS011;3177;49.880;8.836;2022-12-18T08:48:59;55.20;;;22.77;;
6288;SDS011;3177;49.880;8.836;2022-12-18T08:51:28;74.20;;;24.80;;
6288;SDS011;3177;49.880;8.836;2022-12-18T08:53:55;59.03;;;28.00;;
6288;SDS011;3177;49.880;8.836;2022-12-18T08:56:23;51.57;;;24.97;;
6288;SDS011;3177;49.880;8.836;2022-12-18T08:58:51;62.30;;;24.67;;
6288;SDS011;3177;49.880;8.836;2022-12-18T09:01:18;67.70;;;26.17;;
6288;SDS011;3177;49.880;8.836;2022-12-18T09:03:45;61.60;;;27.70;;
6288;SDS011;3177;49.880;8.836;2022-12-18T09:06:13;63.73;;;28.97;;
6288;SDS011;3177;49.880;8.836;2022-12-18T09:08:42;73.80;;;27.10;;
6288;SDS011;3177;49.880;8.836;2022-12-18T09:11:13;73.90;;;29.90;;
6288;SDS011;3177;49.880;8.836;2022-12-18T09:13:40;66.87;;;28.37;;
6288;SDS011;3177;49.880;8.836;2022-12-18T09:16:07;56.57;;;25.07;;
6288;SDS011;3177;49.880;8.836;2022-12-18T09:18:34;66.37;;;25.47;;
6288;SDS011;3177;49.880;8.836;2022-12-18T09:21:07;77.47;;;30.87;;
6288;SDS011;3177;49.880;8.836;2022-12-18T09:23:34;46.90;;;22.67;;
6288;SDS011;3177;49.880;8.836;2022-12-18T09:26:02;60.23;;;28.63;;
6288;SDS011;3177;49.880;8.836;2022-12-18T09:28:29;58.43;;;28.00;;
6288;SDS011;3177;49.880;8.836;2022-12-18T09:30:56;26.73;;;13.23;;
6288;SDS011;3177;49.880;8.836;2022-12-18T09:33:23;61.33;;;25.67;;
6288;SDS011;3177;49.880;8.836;2022-12-18T09:35:50;59.30;;;27.40;;
6288;SDS011;3177;49.880;8.836;2022-12-18T09:38:18;53.10;;;26.47;;
6288;SDS011;3177;49.880;8.836;2022-12-18T09:40:46;61.70;;;25.30;;
6288;SDS011;3177;49.880;8.836;2022-12-18T09:43:16;66.83;;;26.03;;
6288;SDS011;3177;49.880;8.836;2022-12-18T09:45:44;71.90;;;29.43;;
6288;SDS011;3177;49.880;8.836;2022-12-18T09:48:14;66.03;;;28.30;;
6288;SDS011;3177;49.880;8.836;2022-12-18T09:50:42;76.60;;;30.60;;
6288;SDS011;3177;49.880;8.836;2022-12-18T09:53:12;59.27;;;27.67;;
6288;SDS011;3177;49.880;8.836;2022-12-18T09:55:41;65.83;;;28.30;;
6288;SDS011;3177;49.880;8.836;2022-12-18T09:58:12;60.03;;;27.23;;
6288;SDS011;3177;49.880;8.836;2022-12-18T10:00:43;53.50;;;25.50;;
6288;SDS011;3177;49.880;8.836;2022-12-18T10:03:11;86.30;;;31.63;;
6288;SDS011;3177;49.880;8.836;2022-12-18T10:05:40;71.10;;;28.93;;
6288;SDS011;3177;49.880;8.836;2022-12-18T10:08:10;62.17;;;25.53;;
6288;SDS011;3177;49.880;8.836;2022-12-18T10:10:41;56.00;;;24.60;;
6288;SDS011;3177;49.880;8.836;2022-12-18T10:13:14;65.50;;;27.53;;
6288;SDS011;3177;49.880;8.836;2022-12-18T10:15:47;62.20;;;25.17;;
6288;SDS011;3177;49.880;8.836;2022-12-18T10:18:21;52.43;;;22.57;;
6288;SDS011;3177;49.880;8.836;2022-12-18T10:20:51;25.83;;;13.63;;
6288;SDS011;3177;49.880;8.836;2022-12-18T10:23:20;30.40;;;16.80;;
6288;SDS011;3177;49.880;8.836;2022-12-18T10:25:52;32.60;;;15.43;;
6288;SDS011;3177;49.880;8.836;2022-12-18T10:28:21;45.10;;;20.50;;
6288;SDS011;3177;49.880;8.836;2022-12-18T10:30:50;103.43;;;25.80;;
6288;SDS011;3177;49.880;8.836;2022-12-18T10:33:18;51.13;;;22.13;;
6288;SDS011;3177;49.880;8.836;2022-12-18T10:35:45;49.43;;;21.63;;
6288;SDS011;3177;49.880;8.836;2022-12-18T10:38:22;41.80;;;15.97;;
6288;SDS011;3177;49.880;8.836;2022-12-18T10:40:51;58.33;;;23.77;;
6288;SDS011;3177;49.880;8.836;2022-12-18T10:43:22;43.00;;;18.73;;
6288;SDS011;3177;49.880;8.836;2022-12-18T10:46:01;34.90;;;18.87;;
6288;SDS011;3177;49.880;8.836;2022-12-18T10:48:28;13.70;;;9.07;;
6288;SDS011;3177;49.880;8.836;2022-12-18T10:50:56;40.40;;;18.40;;
6288;SDS011;3177;49.880;8.836;2022-12-18T10:53:25;28.97;;;13.80;;
6288;SDS011;3177;49.880;8.836;2022-12-18T10:55:53;39.83;;;19.83;;
6288;SDS011;3177;49.880;8.836;2022-12-18T10:58:23;40.40;;;19.43;;
6288;SDS011;3177;49.880;8.836;2022-12-18T11:01:08;33.40;;;15.63;;
6288;SDS011;3177;49.880;8.836;2022-12-18T11:03:36;44.33;;;20.67;;
6288;SDS011;3177;49.880;8.836;2022-12-18T11:06:05;52.80;;;24.17;;
6288;SDS011;3177;49.880;8.836;2022-12-18T11:08:32;50.60;;;21.80;;
6288;SDS011;3177;49.880;8.836;2022-12-18T11:10:59;14.93;;;9.07;;
6288;SDS011;3177;49.880;8.836;2022-12-18T11:13:27;52.60;;;22.77;;
6288;SDS011;3177;49.880;8.836;2022-12-18T11:15:54;54.87;;;22.87;;
6288;SDS011;3177;49.880;8.836;2022-12-18T11:18:25;48.00;;;21.30;;
6288;SDS011;3177;49.880;8.836;2022-12-18T11:20:53;57.70;;;23.30;;
6288;SDS011;3177;49.880;8.836;2022-12-18T11:23:21;35.77;;;15.97;;
6288;SDS011;3177;49.880;8.836;2022-12-18T11:25:50;54.67;;;21.33;;
6288;SDS011;3177;49.880;8.836;2022-12-18T11:28:28;14.97;;;10.00;;
6288;SDS011;3177;49.880;8.836;2022-12-18T11:31:12;42.33;;;20.73;;
6288;SDS011;3177;49.880;8.836;2022-12-18T11:33:41;45.07;;;19.83;;
6288;SDS011;3177;49.880;8.836;2022-12-18T11:36:08;49.47;;;20.07;;
6288;SDS011;3177;49.880;8.836;2022-12-18T11:38:37;42.07;;;18.43;;
6288;SDS011;3177;49.880;8.836;2022-12-18T11:41:07;52.43;;;20.53;;
6288;SDS011;3177;49.880;8.836;2022-12-18T11:43:41;43.73;;;19.13;;
6288;SDS011;3177;49.880;8.836;2022-12-18T11:46:10;51.43;;;20.97;;
6288;SDS011;3177;49.880;8.836;2022-12-18T11:48:41;47.57;;;19.97;;
6288;SDS011;3177;49.880;8.836;2022-12-18T11:51:11;41.10;;;17.37;;
6288;SDS011;3177;49.880;8.836;2022-12-18T11:53:40;30.73;;;16.97;;
6288;SDS011;3177;49.880;8.836;2022-12-18T11:56:25;49.33;;;20.83;;
6288;SDS011;3177;49.880;8.836;2022-12-18T11:58:55;55.80;;;22.20;;
6288;SDS011;3177;49.880;8.836;2022-12-18T12:01:30;46.50;;;20.73;;
6288;SDS011;3177;49.880;8.836;2022-12-18T12:04:14;27.73;;;14.43;;
6288;SDS011;3177;49.880;8.836;2022-12-18T12:06:49;32.07;;;16.90;;
6288;SDS011;3177;49.880;8.836;2022-12-18T12:09:19;29.23;;;13.40;;
6288;SDS011;3177;49.880;8.836;2022-12-18T12:11:50;45.00;;;20.50;;
6288;SDS011;3177;49.880;8.836;2022-12-18T12:14:34;47.33;;;20.23;;
6288;SDS011;3177;49.880;8.836;2022-12-18T12:17:04;51.50;;;22.20;;
6288;SDS011;3177;49.880;8.836;2022-12-18T12:19:36;36.30;;;13.73;;
6288;SDS011;3177;49.880;8.836;2022-12-18T12:22:07;35.63;;;18.40;;
6288;SDS011;3177;49.880;8.836;2022-12-18T12:24:38;34.63;;;16.53;;
6288;SDS011;3177;49.880;8.836;2022-12-18T12:27:08;44.30;;;18.23;;
6288;SDS011;3177;49.880;8.836;2022-12-18T12:29:41;51.63;;;21.13;;
6288;SDS011;3177;49.880;8.836;2022-12-18T12:32:16;46.80;;;19.70;;
6288;SDS011;3177;49.880;8.836;2022-12-18T12:34:51;47.70;;;20.43;;
6288;SDS011;3177;49.880;8.836;2022-12-18T12:37:23;51.43;;;21.27;;
6288;SDS011;3177;49.880;8.836;2022-12-18T12:39:52;59.13;;;22.27;;
6288;SDS011;3177;49.880;8.836;2022-12-18T12:42:24;39.80;;;16.27;;
6288;SDS011;3177;49.880;8.836;2022-12-18T12:45:13;42.23;;;19.23;;
6288;SDS011;3177;49.880;8.836;2022-12-18T12:47:43;47.80;;;18.00;;
6288;SDS011;3177;49.880;8.836;2022-12-18T12:50:14;45.10;;;22.67;;
6288;SDS011;3177;49.880;8.836;2022-12-18T12:52:44;47.43;;;20.10;;
6288;SDS011;3177;49.880;8.836;2022-12-18T12:55:13;44.07;;;20.47;;
6288;SDS011;3177;49.880;8.836;2022-12-18T12:57:43;46.73;;;21.57;;
6288;SDS011;3177;49.880;8.836;2022-12-18T13:00:13;43.73;;;20.13;;
6288;SDS011;3177;49.880;8.836;2022-12-18T13:02:42;42.30;;;20.33;;
6288;SDS011;3177;49.880;8.836;2022-12-18T13:05:14;42.30;;;20.07;;
6288;SDS011;3177;49.880;8.836;2022-12-18T13:07:45;38.17;;;18.70;;
6288;SDS011;3177;49.880;8.836;2022-12-18T13:10:22;44.50;;;18.97;;
6288;SDS011;3177;49.880;8.836;2022-12-18T13:12:56;24.73;;;12.37;;
6288;SDS011;3177;49.880;8.836;2022-12-18T13:15:25;46.47;;;19.37;;
6288;SDS011;3177;49.880;8.836;2022-12-18T13:20:49;32.70;;;16.67;;
6288;SDS011;3177;49.880;8.836;2022-12-18T13:23:25;43.50;;;18.67;;
6288;SDS011;3177;49.880;8.836;2022-12-18T13:25:53;44.73;;;20.07;;
6288;SDS011;3177;49.880;8.836;2022-12-18T13:28:21;54.43;;;22.03;;
6288;SDS011;3177;49.880;8.836;2022-12-18T13:30:53;45.57;;;20.63;;
6288;SDS011;3177;49.880;8.836;2022-12-18T13:33:36;26.83;;;12.60;;
6288;SDS011;3177;49.880;8.836;2022-12-18T13:36:12;40.37;;;19.00;;
6288;SDS011;3177;49.880;8.836;2022-12-18T13:38:40;45.20;;;18.90;;
6288;SDS011;3177;49.880;8.836;2022-12-18T13:41:22;48.27;;;19.77;;
6288;SDS011;3177;49.880;8.836;2022-12-18T13:43:49;38.83;;;18.57;;
6288;SDS011;3177;49.880;8.836;2022-12-18T13:46:21;39.27;;;17.77;;
6288;SDS011;3177;49.880;8.836;2022-12-18T13:48:50;43.30;;;19.20;;
6288;SDS011;3177;49.880;8.836;2022-12-18T13:51:19;44.43;;;19.30;;
6288;SDS011;3177;49.880;8.836;2022-12-18T13:53:48;40.60;;;18.03;;
6288;SDS011;3177;49.880;8.836;2022-12-18T13:56:16;44.53;;;18.43;;
6288;SDS011;3177;49.880;8.836;2022-12-18T13:58:44;34.07;;;16.60;;
6288;SDS011;3177;49.880;8.836;2022-12-18T14:01:21;30.23;;;15.60;;
6288;SDS011;3177;49.880;8.836;2022-12-18T14:03:48;35.83;;;17.17;;
6288;SDS011;3177;49.880;8.836;2022-12-18T14:06:16;37.33;;;18.30;;
6288;SDS011;3177;49.880;8.836;2022-12-18T14:08:45;34.40;;;17.40;;
6288;SDS011;3177;49.880;8.836;2022-12-18T14:11:18;39.10;;;18.97;;
6288;SDS011;3177;49.880;8.836;2022-12-18T14:13:45;38.53;;;19.37;;
6288;SDS011;3177;49.880;8.836;2022-12-18T14:16:13;41.40;;;18.57;;
6288;SDS011;3177;49.880;8.836;2022-12-18T14:18:42;42.47;;;18.00;;
6288;SDS011;3177;49.880;8.836;2022-12-18T14:21:17;38.83;;;18.30;;
6288;SDS011;3177;49.880;8.836;2022-12-18T14:23:46;36.40;;;17.07;;
6288;SDS011;3177;49.880;8.836;2022-12-18T14:29:17;28.53;;;15.50;;
6288;SDS011;3177;49.880;8.836;2022-12-18T14:31:50;36.40;;;16.93;;
6288;SDS011;3177;49.880;8.836;2022-12-18T14:34:30;35.53;;;18.43;;
6288;SDS011;3177;49.880;8.836;2022-12-18T14:36:57;34.27;;;16.10;;
6288;SDS011;3177;49.880;8.836;2022-12-18T14:39:26;35.93;;;16.90;;
6288;SDS011;3177;49.880;8.836;2022-12-18T14:41:53;38.70;;;17.23;;
6288;SDS011;3177;49.880;8.836;2022-12-18T14:44:20;38.93;;;17.43;;
6288;SDS011;3177;49.880;8.836;2022-12-18T14:46:48;37.97;;;17.73;;
6288;SDS011;3177;49.880;8.836;2022-12-18T14:49:18;39.53;;;18.57;;
6288;SDS011;3177;49.880;8.836;2022-12-18T14:51:47;37.27;;;17.47;;
6288;SDS011;3177;49.880;8.836;2022-12-18T14:54:16;33.40;;;16.23;;
6288;SDS011;3177;49.880;8.836;2022-12-18T14:56:45;30.17;;;15.90;;
6288;SDS011;3177;49.880;8.836;2022-12-18T14:59:13;40.27;;;18.33;;
6288;SDS011;3177;49.880;8.836;2022-12-18T15:01:44;30.03;;;15.57;;
6288;SDS011;3177;49.880;8.836;2022-12-18T15:04:22;30.63;;;15.23;;
6288;SDS011;3177;49.880;8.836;2022-12-18T15:06:50;30.20;;;15.13;;